Coastal Nomad — WDC6439 — position and weather

sailwx.info

Track history (hours):
 
Tides and Currents Weather Stations Pressure Air Temp Water Temp Dewpoint Dewpoint Depression Visibility Wind Speed Wind Dir Waves Ship Positions

Coastal Nomad

Owner: Coastal Transportation, Inc., Seattle, WA. More information available from US FCC via Universal Licensing System and Coast Guard Vessel Documentation Center.

Last reported at 2014-Dec-16 03:15 UTC. Time now 2014-Dec-20 14:24 UTC.
Position N 47°40' W 122°23'.

Length 74 m; draft 5.7 m.

Type: Cargo ship. MMSI: 303683000.

Date/timePositionNaut miles runAvg speedWind from/ knotsBaromVisibWave heightAir tempDewpointWater temp
2014-Dec-16 03:15N 47°40' W 122°23'1 1.7
2014-Dec-16 02:33N 47°40' W 122°24'6 5.7
2014-Dec-16 01:33N 47°46' W 122°26'1111.1
2014-Dec-16 00:33N 47°56' W 122°32'9 8.6
2014-Dec-15 23:33N 48°03' W 122°39'9 8.0
2014-Dec-15 22:28N 48°11' W 122°46'9 9.4
2014-Dec-15 21:33N 48°19' W 122°47'1211.9
2014-Dec-15 20:33N 48°31' W 122°45'1110.8
2014-Dec-15 19:34N 48°42' W 122°44'1110.9
2014-Dec-15 18:33N 48°49' W 122°57'1111.5
2014-Dec-15 17:33N 48°56' W 123°11'1211.5
2014-Dec-15 16:33N 49°03' W 123°24'1211.8
2014-Dec-15 15:33N 49°11' W 123°38'1211.7
2014-Dec-15 14:33N 49°19' W 123°51'1211.9
2014-Dec-15 13:30N 49°27' W 124°06'1111.6
2014-Dec-15 12:33N 49°33' W 124°19'1211.5
2014-Dec-15 11:32N 49°40' W 124°34'1111.6
2014-Dec-15 10:33N 49°47' W 124°48'7710.5
2014-Dec-15 03:12N 50°30' W 126°28'710.2
2014-Dec-15 02:33N 50°31' W 126°38'1010.2
2014-Dec-15 01:33N 50°39' W 126°49'1110.7
2014-Dec-15 00:33N 50°44' W 127°03'1110.2
2014-Dec-14 23:31N 50°51' W 127°17'1010.1
2014-Dec-14 22:33N 50°57' W 127°29'1010.5
2014-Dec-14 21:33N 51°04' W 127°41'1110.4
2014-Dec-14 20:32N 51°12' W 127°51'1511.1
2014-Dec-14 19:10N 51°28' W 127°51'  
2014-Dec-09 18:00N 54°42' W 162°48'   320 / 20965.7 5.4 1.0 4.4
Track history (hours):
 
Tides and Currents Weather Stations Pressure Air Temp Water Temp Dewpoint Dewpoint Depression Visibility Wind Speed Wind Dir Waves Ship Positions

Coastal Nomad

Owner: Coastal Transportation, Inc., Seattle, WA. More information available from US FCC via Universal Licensing System and Coast Guard Vessel Documentation Center.

Last reported at 2014-Dec-16 03:15 UTC. Time now 2014-Dec-20 14:24 UTC.
Position N 47°40' W 122°23'.

Length 74 m; draft 5.7 m.

Type: Cargo ship. MMSI: 303683000.

Date/timePositionNaut miles runAvg speedWind from/ knotsBaromVisibWave heightAir tempDewpointWater temp
2014-Dec-16 03:15N 47°40' W 122°23'1 1.7
2014-Dec-16 02:33N 47°40' W 122°24'6 5.7
2014-Dec-16 01:33N 47°46' W 122°26'1111.1
2014-Dec-16 00:33N 47°56' W 122°32'9 8.6
2014-Dec-15 23:33N 48°03' W 122°39'9 8.0
2014-Dec-15 22:28N 48°11' W 122°46'9 9.4
2014-Dec-15 21:33N 48°19' W 122°47'1211.9
2014-Dec-15 20:33N 48°31' W 122°45'1110.8
2014-Dec-15 19:34N 48°42' W 122°44'1110.9
2014-Dec-15 18:33N 48°49' W 122°57'1111.5
2014-Dec-15 17:33N 48°56' W 123°11'1211.5
2014-Dec-15 16:33N 49°03' W 123°24'1211.8
2014-Dec-15 15:33N 49°11' W 123°38'1211.7
2014-Dec-15 14:33N 49°19' W 123°51'1211.9
2014-Dec-15 13:30N 49°27' W 124°06'1111.6
2014-Dec-15 12:33N 49°33' W 124°19'1211.5
2014-Dec-15 11:32N 49°40' W 124°34'1111.6
2014-Dec-15 10:33N 49°47' W 124°48'7710.5
2014-Dec-15 03:12N 50°30' W 126°28'710.2
2014-Dec-15 02:33N 50°31' W 126°38'1010.2
2014-Dec-15 01:33N 50°39' W 126°49'1110.7
2014-Dec-15 00:33N 50°44' W 127°03'1110.2
2014-Dec-14 23:31N 50°51' W 127°17'1010.1
2014-Dec-14 22:33N 50°57' W 127°29'1010.5
2014-Dec-14 21:33N 51°04' W 127°41'1110.4
2014-Dec-14 20:32N 51°12' W 127°51'1511.1
2014-Dec-14 19:10N 51°28' W 127°51'  
2014-Dec-09 18:00N 54°42' W 162°48'   320 / 20965.7 5.4 1.0 4.4

Dump ship's entire track history